Time;durP1;ratioP1;P1;durP2;ratioP2;P2;SDS_P1;SDS_P2;PMS_P1;PMS_P2;Temp;Humidity;BMP_temperature;BMP_pressure;BME280_temperature;BME280_humidity;BME280_pressure;Samples;Min_cycle;Max_cycle;Signal;HPM_P1;HPM_P2
2021/09/10 00:01:29;;;;;;;;;;;;;;;21.00;87.14;101076.50;5056025;28;19951;-51
2021/09/10 00:04:01;;;;;;;;;;;;;;;20.95;88.01;101074.28;5069940;28;20700;-52
2021/09/10 00:06:28;;;;;;;;;;;;;;;20.90;88.19;101081.94;5053122;28;19947;-51
2021/09/10 00:08:56;;;;;;;;;;;;;;;20.86;88.21;101084.13;5053372;28;19924;-50
2021/09/10 00:11:23;;;;;;;;;;;;;;;20.83;87.80;101081.75;5067309;28;20346;-52
2021/09/10 00:13:49;;;;;;;;;;;;;;;20.84;88.21;101079.94;5069790;28;20489;-53
2021/09/10 00:16:16;;;;;;;;;;;;;;;20.82;88.19;101079.25;5052284;28;19928;-50
2021/09/10 00:18:43;;;;;;;;;;;;;;;20.81;87.97;101074.94;5067891;28;19947;-54
2021/09/10 00:21:09;;;;;;;;;;;;;;;20.75;88.38;101076.38;5054149;28;19978;-50
2021/09/10 00:23:36;;;;;;;;;;;;;;;20.72;88.60;101077.56;5055603;28;20395;-52
2021/09/10 00:26:02;;;;;;;;;;;;;;;20.70;88.63;101074.19;5052766;28;19925;-52
2021/09/10 00:28:29;;;;;;;;;;;;;;;20.69;88.49;101077.88;5051240;28;20043;-52
2021/09/10 00:30:56;;;;;;;;;;;;;;;20.65;88.51;101081.00;5055166;28;19928;-52
2021/09/10 00:33:23;;;;;;;;;;;;;;;20.54;89.06;101082.94;5052117;28;19928;-50
2021/09/10 00:35:49;;;;;;;;;;;;;;;20.48;88.73;101078.25;5052039;28;19925;-49
2021/09/10 00:38:16;;;;;;;;;;;;;;;20.43;89.25;101078.72;5052210;28;20285;-51
2021/09/10 00:40:44;;;;;;;;;;;;;;;20.38;89.14;101075.72;5052361;28;19937;-48
2021/09/10 00:43:11;;;;;;;;;;;;;;;20.34;88.87;101077.03;5050266;28;19929;-53
2021/09/10 00:45:42;;;;;;;;;;;;;;;20.39;88.90;101072.00;5067800;28;19936;-50
2021/09/10 00:48:09;;;;;;;;;;;;;;;20.36;89.55;101072.34;5051411;28;19929;-53
2021/09/10 00:50:37;;;;;;;;;;;;;;;20.34;89.35;101073.50;5067243;28;20402;-50
2021/09/10 00:53:04;;;;;;;;;;;;;;;20.32;89.38;101078.16;5067458;28;19964;-52
2021/09/10 00:55:31;;;;;;;;;;;;;;;20.30;89.87;101073.00;5067074;28;19932;-48
2021/09/10 00:57:57;;;;;;;;;;;;;;;20.30;90.79;101073.00;5066334;28;19931;-53
2021/09/10 01:00:24;;;;;;;;;;;;;;;20.25;90.74;101069.94;5052133;28;19929;-53
2021/09/10 01:02:50;;;;;;;;;;;;;;;20.21;91.22;101073.94;5051432;28;19971;-52
2021/09/10 01:05:17;;;;;;;;;;;;;;;20.15;91.02;101075.41;5050500;28;19971;-50
2021/09/10 01:07:44;;;;;;;;;;;;;;;20.15;91.04;101075.41;5052714;28;19925;-50
2021/09/10 01:10:10;;;;;;;;;;;;;;;20.10;91.32;101081.19;5068955;28;20335;-52
2021/09/10 01:12:37;;;;;;;;;;;;;;;20.12;91.00;101081.03;5065044;28;19932;-51
2021/09/10 01:15:04;;;;;;;;;;;;;;;20.03;91.69;101074.81;5050335;28;19979;-47
2021/09/10 01:17:31;;;;;;;;;;;;;;;20.03;91.55;101082.81;5067311;28;19937;-44
2021/09/10 01:19:57;;;;;;;;;;;;;;;19.98;91.17;101074.44;5052758;28;20372;-43
2021/09/10 01:22:24;;;;;;;;;;;;;;;19.99;90.64;101078.78;5051691;28;19931;-44
2021/09/10 01:25:06;;;;;;;;;;;;;;;19.98;90.46;101077.13;5051350;28;20395;-42
2021/09/10 01:27:33;;;;;;;;;;;;;;;19.98;90.38;101073.63;5049798;28;19928;-44
2021/09/10 01:29:59;;;;;;;;;;;;;;;19.96;90.75;101073.78;5053164;28;19940;-43
2021/09/10 01:32:26;;;;;;;;;;;;;;;19.97;91.03;101072.75;5053848;28;20406;-47
2021/09/10 01:34:53;;;;;;;;;;;;;;;19.90;90.97;101071.72;5068610;28;19929;-46
2021/09/10 01:37:19;;;;;;;;;;;;;;;19.89;90.83;101075.38;5052291;28;19979;-43
2021/09/10 01:39:46;;;;;;;;;;;;;;;19.91;90.56;101068.06;5053631;28;19929;-45
2021/09/10 01:42:13;;;;;;;;;;;;;;;19.92;90.70;101072.41;5053977;28;20391;-44
2021/09/10 01:44:39;;;;;;;;;;;;;;;19.93;90.75;101072.25;5051221;28;19991;-44
2021/09/10 01:47:06;;;;;;;;;;;;;;;19.89;91.03;101067.38;5050164;28;19932;-45
2021/09/10 01:49:32;;;;;;;;;;;;;;;19.88;91.18;101073.72;5051038;28;20318;-46
2021/09/10 01:51:59;;;;;;;;;;;;;;;19.84;91.50;101072.34;5050899;28;19979;-46
2021/09/10 01:54:26;;;;;;;;;;;;;;;19.76;91.26;101076.59;5050719;28;20261;-47
2021/09/10 01:56:53;;;;;;;;;;;;;;;19.74;91.72;101075.06;5049204;28;20961;-44
2021/09/10 01:59:19;;;;;;;;;;;;;;;19.68;91.31;101073.84;5052448;28;19924;-44
2021/09/10 02:01:46;;;;;;;;;;;;;;;19.60;91.84;101073.78;5051593;28;19936;-44
2021/09/10 02:04:13;;;;;;;;;;;;;;;19.55;92.01;101068.06;5050253;28;19928;-47
2021/09/10 02:06:40;;;;;;;;;;;;;;;19.57;92.44;101074.09;5053542;28;20007;-45
2021/09/10 02:09:06;;;;;;;;;;;;;;;19.58;92.35;101073.13;5053672;28;19925;-46
2021/09/10 02:11:33;;;;;;;;;;;;;;;19.56;92.02;101075.09;5053780;28;20331;-45
2021/09/10 02:14:00;;;;;;;;;;;;;;;19.49;92.23;101071.34;5053643;28;20283;-44
2021/09/10 02:16:26;;;;;;;;;;;;;;;19.53;92.30;101075.41;5052076;28;20572;-44
2021/09/10 02:18:53;;;;;;;;;;;;;;;19.50;91.96;101071.19;5053334;28;19924;-44
2021/09/10 02:21:20;;;;;;;;;;;;;;;19.44;91.69;101069.13;5053008;28;19951;-45
2021/09/10 02:23:47;;;;;;;;;;;;;;;19.38;91.63;101073.25;5052411;28;19924;-47
2021/09/10 02:26:13;;;;;;;;;;;;;;;19.35;91.37;101062.06;5049854;28;20340;-43
2021/09/10 02:28:40;;;;;;;;;;;;;;;19.34;91.23;101076.38;5049118;28;19990;-43
2021/09/10 02:31:06;;;;;;;;;;;;;;;19.30;91.46;101075.84;5049368;28;19929;-44
2021/09/10 02:33:33;;;;;;;;;;;;;;;19.24;91.18;101077.28;5052925;28;19946;-43
2021/09/10 02:36:00;;;;;;;;;;;;;;;19.25;91.00;101072.78;5052976;28;19964;-45
2021/09/10 02:38:27;;;;;;;;;;;;;;;19.21;92.13;101077.59;5050721;28;19929;-43
2021/09/10 02:40:54;;;;;;;;;;;;;;;19.19;91.43;101076.06;5049932;28;19932;-45
2021/09/10 02:43:20;;;;;;;;;;;;;;;19.18;91.58;101072.56;5066056;28;20327;-45
2021/09/10 02:45:48;;;;;;;;;;;;;;;19.17;91.56;101073.56;5051531;28;19924;-44
2021/09/10 02:48:14;;;;;;;;;;;;;;;19.16;91.43;101065.72;5053097;28;20327;-46
2021/09/10 02:50:41;;;;;;;;;;;;;;;19.14;91.30;101059.69;5052851;28;19925;-42
2021/09/10 02:53:08;;;;;;;;;;;;;;;19.10;92.08;101059.13;5052654;28;19925;-49
2021/09/10 02:55:34;;;;;;;;;;;;;;;19.12;91.28;101062.50;5049056;28;20395;-51
2021/09/10 02:58:01;;;;;;;;;;;;;;;19.08;91.28;101061.94;5048715;28;20350;-48
2021/09/10 03:00:27;;;;;;;;;;;;;;;19.05;91.64;101064.09;5048647;28;19928;-48
2021/09/10 03:02:54;;;;;;;;;;;;;;;19.06;91.22;101057.75;5065608;28;20027;-50
2021/09/10 03:05:21;;;;;;;;;;;;;;;19.03;91.89;101066.91;5050858;28;20447;-42
2021/09/10 03:07:48;;;;;;;;;;;;;;;19.04;91.11;101057.91;5052659;28;19932;-45
2021/09/10 03:10:14;;;;;;;;;;;;;;;18.98;91.76;101061.19;5052768;28;20418;-45
2021/09/10 03:12:41;;;;;;;;;;;;;;;19.00;91.75;101067.19;5052655;28;20016;-46
2021/09/10 03:15:09;;;;;;;;;;;;;;;18.96;91.47;101063.16;5052705;28;19971;-47
2021/09/10 03:17:36;;;;;;;;;;;;;;;18.95;91.84;101064.16;5051807;28;20452;-45
2021/09/10 03:20:03;;;;;;;;;;;;;;;18.92;92.41;101061.78;5048498;28;19925;-49
2021/09/10 03:22:30;;;;;;;;;;;;;;;18.87;92.59;101067.53;5051315;28;19925;-53
2021/09/10 03:24:56;;;;;;;;;;;;;;;18.87;92.77;101066.69;5050456;28;20225;-50
2021/09/10 03:27:23;;;;;;;;;;;;;;;18.87;93.29;101061.34;5046898;28;19933;-51
2021/09/10 03:29:50;;;;;;;;;;;;;;;18.83;94.23;101057.31;5052486;28;20293;-51
2021/09/10 03:32:16;;;;;;;;;;;;;;;18.76;94.21;101057.09;5050966;28;19932;-51
2021/09/10 03:34:43;;;;;;;;;;;;;;;18.73;93.85;101057.38;5055019;28;20350;-52
2021/09/10 03:37:11;;;;;;;;;;;;;;;18.75;94.31;101050.91;5053249;28;19925;-49
2021/09/10 03:39:38;;;;;;;;;;;;;;;18.77;93.88;101053.41;5053463;28;19982;-52
2021/09/10 03:42:05;;;;;;;;;;;;;;;18.78;94.63;101057.75;5056196;28;19925;-49
2021/09/10 03:44:31;;;;;;;;;;;;;;;18.77;94.66;101065.91;5055149;28;19968;-50
2021/09/10 03:47:04;;;;;;;;;;;;;;;18.73;94.99;101058.22;5055122;28;19986;-49
2021/09/10 03:49:32;;;;;;;;;;;;;;;18.66;94.37;101062.44;5053265;28;19929;-49
2021/09/10 03:51:58;;;;;;;;;;;;;;;18.61;94.58;101067.41;5053342;28;19925;-47
2021/09/10 03:54:25;;;;;;;;;;;;;;;18.63;94.42;101072.56;5055047;28;19928;-48
2021/09/10 03:56:51;;;;;;;;;;;;;;;18.56;94.42;101069.66;5055835;28;19974;-49
2021/09/10 03:59:18;;;;;;;;;;;;;;;18.61;94.23;101071.88;5056060;28;19924;-49
2021/09/10 04:01:45;;;;;;;;;;;;;;;18.62;93.90;101054.91;5056187;28;19925;-51
2021/09/10 04:04:12;;;;;;;;;;;;;;;18.66;94.81;101064.28;5069107;28;19972;-52
2021/09/10 04:06:38;;;;;;;;;;;;;;;18.59;94.51;101064.84;5053219;28;19975;-52
2021/09/10 04:09:05;;;;;;;;;;;;;;;18.54;94.58;101060.97;5054758;28;19983;-50
2021/09/10 04:11:32;;;;;;;;;;;;;;;18.53;94.35;101061.97;5055460;28;19990;-48
2021/09/10 04:13:58;;;;;;;;;;;;;;;18.42;94.37;101063.00;5051558;28;20423;-49
2021/09/10 04:16:25;;;;;;;;;;;;;;;18.47;94.24;101058.03;5052831;28;20020;-48
2021/09/10 04:18:53;;;;;;;;;;;;;;;18.46;94.63;101067.03;5054223;28;20002;-50
2021/09/10 04:21:20;;;;;;;;;;;;;;;18.42;94.54;101066.47;5055655;28;20287;-49
2021/09/10 04:23:46;;;;;;;;;;;;;;;18.39;94.87;101068.59;5054207;28;20376;-48
2021/09/10 04:26:13;;;;;;;;;;;;;;;18.33;94.71;101067.34;5055045;28;19987;-51
2021/09/10 04:28:40;;;;;;;;;;;;;;;18.37;94.40;101073.22;5050308;28;19928;-52
2021/09/10 04:31:06;;;;;;;;;;;;;;;18.33;94.53;101075.34;5053829;28;19925;-51
2021/09/10 04:33:33;;;;;;;;;;;;;;;18.34;94.66;101069.03;5055396;28;20303;-50
2021/09/10 04:36:00;;;;;;;;;;;;;;;18.38;95.23;101075.75;5053120;28;19925;-53
2021/09/10 04:38:27;;;;;;;;;;;;;;;18.32;95.22;101072.81;5052096;28;19924;-53
2021/09/10 04:40:54;;;;;;;;;;;;;;;18.32;95.06;101075.47;5052300;28;19933;-42
2021/09/10 04:43:20;;;;;;;;;;;;;;;18.30;95.63;101072.13;5050397;28;19955;-45
2021/09/10 04:45:47;;;;;;;;;;;;;;;18.31;95.98;101071.13;5053486;28;19929;-42
2021/09/10 04:48:14;;;;;;;;;;;;;;;18.33;95.63;101070.00;5054462;28;19935;-48
2021/09/10 04:50:40;;;;;;;;;;;;;;;18.30;94.99;101067.66;5053239;28;19925;-44
2021/09/10 04:53:07;;;;;;;;;;;;;;;18.28;94.97;101072.25;5053651;28;20352;-45
2021/09/10 04:55:34;;;;;;;;;;;;;;;18.30;95.42;101078.28;5055112;28;19925;-43
2021/09/10 04:58:01;;;;;;;;;;;;;;;18.20;95.12;101080.13;5054776;28;19928;-47
2021/09/10 05:00:27;;;;;;;;;;;;;;;18.16;95.86;101073.41;5054954;28;19932;-46
2021/09/10 05:02:54;;;;;;;;;;;;;;;18.17;95.35;101069.78;5053597;28;19929;-46
2021/09/10 05:05:21;;;;;;;;;;;;;;;18.17;94.88;101075.09;5054837;28;19963;-43
2021/09/10 05:07:47;;;;;;;;;;;;;;;18.13;95.54;101071.88;5053150;28;19948;-44
2021/09/10 05:10:14;;;;;;;;;;;;;;;18.14;95.48;101076.22;5051681;28;19951;-43
2021/09/10 05:12:41;;;;;;;;;;;;;;;18.11;95.19;101068.53;5052303;28;19970;-43
2021/09/10 05:15:08;;;;;;;;;;;;;;;18.13;94.69;101073.72;5054532;28;19929;-52
2021/09/10 05:17:35;;;;;;;;;;;;;;;18.12;94.89;101077.34;5069712;28;20011;-53
2021/09/10 05:20:03;;;;;;;;;;;;;;;18.11;95.02;101084.50;5050239;28;19924;-51
2021/09/10 05:22:30;;;;;;;;;;;;;;;18.13;95.62;101081.69;5051735;28;19979;-51
2021/09/10 05:24:56;;;;;;;;;;;;;;;18.17;95.45;101091.06;5054254;28;19925;-46
2021/09/10 05:27:23;;;;;;;;;;;;;;;18.19;96.13;101091.78;5053802;28;19936;-45
2021/09/10 05:29:50;;;;;;;;;;;;;;;18.19;95.96;101091.78;5054034;28;19928;-42
2021/09/10 05:32:16;;;;;;;;;;;;;;;18.20;96.68;101088.97;5069607;28;19974;-45
2021/09/10 05:34:43;;;;;;;;;;;;;;;18.26;96.65;101092.88;5053905;28;20565;-47
2021/09/10 05:37:10;;;;;;;;;;;;;;;18.27;97.07;101085.72;5054263;28;20379;-42
2021/09/10 05:39:38;;;;;;;;;;;;;;;18.30;96.96;101094.25;5053868;28;19983;-46
2021/09/10 05:42:04;;;;;;;;;;;;;;;18.31;97.10;101087.97;5054200;28;19925;-41
2021/09/10 05:44:31;;;;;;;;;;;;;;;18.36;97.33;101093.66;5053995;28;20028;-44
2021/09/10 05:46:58;;;;;;;;;;;;;;;18.41;97.40;101096.75;5069245;28;20284;-45
2021/09/10 05:49:25;;;;;;;;;;;;;;;18.44;98.33;101100.94;5053345;28;19929;-45
2021/09/10 05:51:51;;;;;;;;;;;;;;;18.49;98.78;101109.34;5051284;28;19924;-43
2021/09/10 05:54:18;;;;;;;;;;;;;;;18.53;99.47;101104.56;5051865;28;19929;-43
2021/09/10 05:56:45;;;;;;;;;;;;;;;18.55;99.70;101106.06;5050848;28;19932;-44
2021/09/10 05:59:11;;;;;;;;;;;;;;;18.55;100.00;101114.06;5050369;28;20364;-45
2021/09/10 06:01:38;;;;;;;;;;;;;;;18.66;100.00;101112.22;5053266;28;19932;-43
2021/09/10 06:04:06;;;;;;;;;;;;;;;18.68;100.00;101113.75;5053545;28;19931;-43
2021/09/10 06:06:33;;;;;;;;;;;;;;;18.74;100.00;101113.16;5050737;28;20396;-48
2021/09/10 06:08:59;;;;;;;;;;;;;;;18.81;99.65;101112.56;5049500;28;19925;-44
2021/09/10 06:11:26;;;;;;;;;;;;;;;18.90;99.37;101109.91;5065478;28;19928;-44
2021/09/10 06:13:53;;;;;;;;;;;;;;;18.95;99.98;101121.94;5064617;28;20018;-43
2021/09/10 06:16:20;;;;;;;;;;;;;;;19.01;99.40;101116.84;5051401;28;19929;-46
2021/09/10 06:18:47;;;;;;;;;;;;;;;19.07;99.16;101118.06;5053206;28;19925;-44
2021/09/10 06:21:13;;;;;;;;;;;;;;;19.12;99.00;101129.13;5053276;28;19924;-43
2021/09/10 06:23:41;;;;;;;;;;;;;;;19.22;98.99;101129.94;5053323;28;19924;-43
2021/09/10 06:26:08;;;;;;;;;;;;;;;19.33;98.96;101130.69;5051516;28;19929;-45
2021/09/10 06:28:35;;;;;;;;;;;;;;;19.47;97.00;101129.31;5049336;28;19991;-44
2021/09/10 06:31:02;;;;;;;;;;;;;;;19.46;96.49;101131.16;5053327;28;20245;-48
2021/09/10 06:33:29;;;;;;;;;;;;;;;19.48;96.31;101133.69;5052155;28;19924;-46
2021/09/10 06:35:56;;;;;;;;;;;;;;;19.54;96.00;101131.25;5065058;28;20017;-51
2021/09/10 06:38:25;;;;;;;;;;;;;;;19.62;95.61;101135.84;5050613;28;20375;-52
2021/09/10 06:40:52;;;;;;;;;;;;;;;19.64;95.33;101139.19;5051718;28;19925;-52
2021/09/10 06:43:19;;;;;;;;;;;;;;;19.72;95.21;101133.09;5053004;28;19925;-53
2021/09/10 06:45:46;;;;;;;;;;;;;;;19.79;95.40;101139.47;5050367;28;19955;-52
2021/09/10 06:48:13;;;;;;;;;;;;;;;19.86;94.66;101145.91;5050996;28;19924;-51
2021/09/10 06:50:40;;;;;;;;;;;;;;;19.94;94.54;101145.13;5053140;28;20382;-51
2021/09/10 06:53:08;;;;;;;;;;;;;;;20.01;93.68;101143.53;5050155;28;19979;-44
2021/09/10 06:55:35;;;;;;;;;;;;;;;20.08;93.55;101144.59;5049810;28;19924;-44
2021/09/10 06:58:02;;;;;;;;;;;;;;;20.15;93.23;101150.16;5052453;28;20301;-45
2021/09/10 07:00:28;;;;;;;;;;;;;;;20.20;92.09;101147.00;5050015;28;19924;-47
2021/09/10 07:02:55;;;;;;;;;;;;;;;20.23;91.71;101146.69;5050146;28;19970;-45
2021/09/10 07:05:22;;;;;;;;;;;;;;;20.28;92.02;101149.75;5049535;28;19925;-43
2021/09/10 07:07:51;;;;;;;;;;;;;;;20.30;91.26;101149.56;5049055;28;19925;-46
2021/09/10 07:10:18;;;;;;;;;;;;;;;20.36;91.13;101148.97;5064692;28;20429;-47
2021/09/10 07:12:45;;;;;;;;;;;;;;;20.38;90.47;101161.16;5052141;28;19925;-51
2021/09/10 07:15:11;;;;;;;;;;;;;;;20.42;90.63;101161.69;5049525;28;19933;-54
2021/09/10 07:17:38;;;;;;;;;;;;;;;20.44;90.21;101155.19;5050040;28;20392;-53
2021/09/10 07:20:05;;;;;;;;;;;;;;;20.47;90.07;101163.91;5049347;28;19932;-53
2021/09/10 07:22:32;;;;;;;;;;;;;;;20.48;89.87;101153.03;5051667;28;19925;-45
2021/09/10 07:24:59;;;;;;;;;;;;;;;20.55;89.41;101151.41;5052442;28;19925;-45
2021/09/10 07:27:25;;;;;;;;;;;;;;;20.60;88.81;101157.13;5048345;28;20058;-43
2021/09/10 07:29:52;;;;;;;;;;;;;;;20.59;89.02;101162.63;5050357;28;19924;-45
2021/09/10 07:32:19;;;;;;;;;;;;;;;20.55;88.53;101161.28;5052469;28;19925;-53
2021/09/10 07:34:46;;;;;;;;;;;;;;;20.51;88.52;101160.75;5051066;28;19952;-54
2021/09/10 07:37:12;;;;;;;;;;;;;;;20.54;88.13;101159.59;5050206;28;19983;-53
2021/09/10 07:39:39;;;;;;;;;;;;;;;20.54;88.10;101157.75;5049712;28;19925;-54
2021/09/10 07:42:06;;;;;;;;;;;;;;;20.57;88.00;101153.91;5047360;28;19924;-51
2021/09/10 07:44:32;;;;;;;;;;;;;;;20.66;87.57;101160.16;5050153;28;19956;-54
2021/09/10 07:46:59;;;;;;;;;;;;;;;20.70;87.07;101158.88;5052406;28;19925;-53
2021/09/10 07:49:27;;;;;;;;;;;;;;;20.64;87.30;101164.81;5052441;28;20375;-54
2021/09/10 07:51:53;;;;;;;;;;;;;;;20.66;87.14;101177.03;5052198;28;20509;-53
2021/09/10 07:54:20;;;;;;;;;;;;;;;20.72;87.03;101173.75;5051670;28;19925;-51
2021/09/10 07:56:47;;;;;;;;;;;;;;;20.73;87.12;101178.09;5051501;28;19979;-53
2021/09/10 07:59:14;;;;;;;;;;;;;;;20.79;86.39;101175.78;5051574;28;19931;-50
2021/09/10 08:01:41;;;;;;;;;;;;;;;20.85;86.50;101176.00;5051991;28;19924;-52
2021/09/10 08:04:08;;;;;;;;;;;;;;;20.96;86.63;101179.38;5051866;28;20253;-54
2021/09/10 08:06:36;;;;;;;;;;;;;;;21.01;86.34;101172.56;5067515;28;19925;-53
2021/09/10 08:09:04;;;;;;;;;;;;;;;21.01;86.11;101182.41;5064819;28;20466;-54
2021/09/10 08:11:33;;;;;;;;;;;;;;;21.17;86.07;101189.66;5048351;28;19955;-54
2021/09/10 08:14:02;;;;;;;;;;;;;;;21.21;85.07;101183.00;5064371;28;19931;-53
2021/09/10 08:16:29;;;;;;;;;;;;;;;21.28;84.45;101184.00;5066961;28;19932;-55
2021/09/10 08:18:56;;;;;;;;;;;;;;;21.38;84.04;101198.09;5051770;28;20016;-54
2021/09/10 08:21:40;;;;;;;;;;;;;;;21.41;84.24;101197.75;5055390;28;19932;-45
2021/09/10 08:24:09;;;;;;;;;;;;;;;21.45;83.93;101196.44;5055394;28;19931;-45
2021/09/10 08:26:36;;;;;;;;;;;;;;;21.55;82.71;101208.88;5055166;28;19959;-47
2021/09/10 08:29:02;;;;;;;;;;;;;;;21.56;82.54;101202.53;5055442;28;19924;-46
2021/09/10 08:31:29;;;;;;;;;;;;;;;21.67;82.62;101204.06;5054053;28;19970;-49
2021/09/10 08:33:56;;;;;;;;;;;;;;;21.71;81.84;101206.22;5066959;28;19929;-47
2021/09/10 08:36:23;;;;;;;;;;;;;;;21.80;80.84;101209.78;5052430;28;20387;-49
2021/09/10 08:38:50;;;;;;;;;;;;;;;21.82;81.00;101217.63;5052564;28;19935;-50
2021/09/10 08:41:17;;;;;;;;;;;;;;;21.90;81.14;101214.97;5053742;28;20019;-46
2021/09/10 08:43:45;;;;;;;;;;;;;;;21.97;80.58;101218.66;5055356;28;20338;-47
2021/09/10 08:46:11;;;;;;;;;;;;;;;22.04;80.88;101219.66;5053225;28;20288;-44
2021/09/10 08:48:38;;;;;;;;;;;;;;;22.10;80.13;101216.31;5052789;28;19974;-49
2021/09/10 08:51:04;;;;;;;;;;;;;;;22.19;79.83;101219.00;5053830;28;19932;-54
2021/09/10 08:53:31;;;;;;;;;;;;;;;22.22;78.99;101210.63;5054932;28;19925;-52
2021/09/10 08:55:59;;;;;;;;;;;;;;;22.23;79.15;101214.97;5053261;28;19929;-52
2021/09/10 08:58:25;;;;;;;;;;;;;;;22.28;78.54;101216.16;5066024;28;19943;-53
2021/09/10 09:01:00;;;;;;;;;;;;;;;22.28;78.48;101218.81;5052207;28;19925;-53
2021/09/10 09:03:28;;;;;;;;;;;;;;;22.26;78.62;101220.84;5051721;28;20051;-49
2021/09/10 09:05:55;;;;;;;;;;;;;;;22.26;78.40;101223.53;5051425;28;19968;-54
2021/09/10 09:08:21;;;;;;;;;;;;;;;22.33;78.49;101217.47;5051638;28;19928;-52
2021/09/10 09:10:58;;;;;;;;;;;;;;;22.48;77.00;101221.16;5053254;28;19925;-52
2021/09/10 09:13:27;;;;;;;;;;;;;;;22.56;76.86;101220.34;5054772;28;20624;-53
2021/09/10 09:16:10;;;;;;;;;;;;;;;22.68;76.65;101220.81;5051693;28;19928;-53
2021/09/10 09:18:41;;;;;;;;;;;;;;;22.82;76.67;101213.91;5052883;28;20370;-52
2021/09/10 09:21:07;;;;;;;;;;;;;;;22.86;76.17;101207.19;5054080;28;19925;-51
2021/09/10 09:23:34;;;;;;;;;;;;;;;22.86;76.48;101210.72;5052887;28;19974;-49
2021/09/10 09:26:01;;;;;;;;;;;;;;;22.89;75.81;101214.91;5050259;28;20319;-52
2021/09/10 09:28:29;;;;;;;;;;;;;;;22.98;75.22;101215.72;5065349;28;19951;-52
2021/09/10 09:30:56;;;;;;;;;;;;;;;22.99;74.90;101212.88;5050274;28;19928;-51
2021/09/10 09:33:27;;;;;;;;;;;;;;;23.03;74.34;101216.88;5051500;28;20449;-54
2021/09/10 09:35:58;;;;;;;;;;;;;;;23.04;74.42;101218.56;5050894;28;20295;-53
2021/09/10 09:38:26;;;;;;;;;;;;;;;23.07;74.74;101211.97;5053372;28;19929;-54
2021/09/10 09:40:54;;;;;;;;;;;;;;;23.17;74.43;101223.38;5069187;28;19928;-51
2021/09/10 09:43:22;;;;;;;;;;;;;;;23.31;74.55;101226.34;5054141;28;20479;-53
2021/09/10 09:45:49;;;;;;;;;;;;;;;23.54;74.10;101219.16;5069324;28;19924;-52
2021/09/10 09:48:17;;;;;;;;;;;;;;;23.53;72.84;101222.03;5054073;28;19929;-52
2021/09/10 09:50:44;;;;;;;;;;;;;;;23.54;72.89;101237.13;5069225;28;20368;-51
2021/09/10 09:53:12;;;;;;;;;;;;;;;23.79;72.83;101233.28;5069206;28;20327;-54
2021/09/10 09:55:40;;;;;;;;;;;;;;;23.56;71.98;101232.41;5068040;28;19964;-51
2021/09/10 09:58:07;;;;;;;;;;;;;;;23.63;72.35;101234.22;5049974;28;19928;-52
2021/09/10 10:00:34;;;;;;;;;;;;;;;23.92;71.75;101231.91;5067035;28;19955;-53
2021/09/10 10:03:02;;;;;;;;;;;;;;;24.06;70.59;101233.78;5053575;28;20303;-53
2021/09/10 10:05:30;;;;;;;;;;;;;;;24.27;69.92;101235.00;5068828;28;20836;-53
2021/09/10 10:08:05;;;;;;;;;;;;;;;24.46;69.47;101241.72;5068345;28;20422;-53
2021/09/10 10:10:33;;;;;;;;;;;;;;;24.59;68.67;101241.91;5050258;28;19925;-53
2021/09/10 10:13:00;;;;;;;;;;;;;;;24.73;69.19;101239.44;5064493;28;20383;-48
2021/09/10 10:15:28;;;;;;;;;;;;;;;24.89;67.93;101241.13;5065945;28;20012;-51
2021/09/10 10:17:56;;;;;;;;;;;;;;;25.06;66.64;101242.63;5051419;28;19959;-50
2021/09/10 10:20:41;;;;;;;;;;;;;;;25.36;64.83;101241.78;5053269;28;19929;-52
2021/09/10 10:23:28;;;;;;;;;;;;;;;25.75;64.53;101236.00;5053443;28;19925;-49
2021/09/10 10:26:05;;;;;;;;;;;;;;;25.45;65.11;101238.78;5052597;28;19925;-44
2021/09/10 10:28:42;;;;;;;;;;;;;;;25.38;65.20;101243.25;5049301;28;20032;-42
2021/09/10 10:31:09;;;;;;;;;;;;;;;25.55;64.85;101248.41;5065895;28;19925;-45
2021/09/10 10:33:36;;;;;;;;;;;;;;;25.62;64.65;101244.78;5068564;28;19929;-46
2021/09/10 10:36:22;;;;;;;;;;;;;;;25.67;65.48;101238.81;5051545;28;19982;-43
2021/09/10 10:39:07;;;;;;;;;;;;;;;25.77;65.65;101231.28;5053114;28;19925;-45
2021/09/10 10:41:52;;;;;;;;;;;;;;;25.83;64.29;101234.22;5048527;28;19948;-44
2021/09/10 10:44:31;;;;;;;;;;;;;;;25.97;63.46;101231.47;5065569;28;19931;-43
2021/09/10 10:47:10;;;;;;;;;;;;;;;26.16;62.00;101229.16;5053022;28;19924;-43
2021/09/10 10:49:41;;;;;;;;;;;;;;;26.25;62.11;101230.72;5053055;28;19928;-42
2021/09/10 10:52:23;;;;;;;;;;;;;;;26.02;61.47;101225.53;5052915;28;19925;-42
2021/09/10 10:55:09;;;;;;;;;;;;;;;25.95;62.13;101221.91;5053173;28;19928;-42
2021/09/10 10:57:35;;;;;;;;;;;;;;;26.19;61.60;101219.88;5052894;28;20328;-42
2021/09/10 11:00:22;;;;;;;;;;;;;;;26.44;61.92;101218.41;5052656;28;19929;-43
2021/09/10 11:02:48;;;;;;;;;;;;;;;26.27;62.21;101215.19;5052486;28;19991;-44
2021/09/10 11:05:17;;;;;;;;;;;;;;;26.30;62.09;101212.09;5051351;28;19971;-44
2021/09/10 11:07:44;;;;;;;;;;;;;;;26.80;61.63;101209.34;5049551;28;20365;-52
2021/09/10 11:10:14;;;;;;;;;;;;;;;26.84;61.81;101200.88;5050176;28;19925;-53
2021/09/10 11:12:41;;;;;;;;;;;;;;;27.34;60.20;101198.78;5048217;28;19931;-44
2021/09/10 11:15:15;;;;;;;;;;;;;;;27.11;60.50;101199.94;5049317;28;19928;-43
2021/09/10 11:17:42;;;;;;;;;;;;;;;27.47;58.18;101193.47;5052505;28;19986;-49
2021/09/10 11:20:09;;;;;;;;;;;;;;;27.52;57.69;101186.63;5067885;28;20265;-49
2021/09/10 11:22:54;;;;;;;;;;;;;;;27.45;56.96;101182.03;5052482;28;19947;-50
2021/09/10 11:25:21;;;;;;;;;;;;;;;27.44;56.71;101183.06;5052730;28;19929;-43
2021/09/10 11:27:48;;;;;;;;;;;;;;;27.28;58.00;101186.09;5050270;28;19928;-42
2021/09/10 11:30:14;;;;;;;;;;;;;;;27.38;56.92;101180.34;5048076;28;19924;-46
2021/09/10 11:32:41;;;;;;;;;;;;;;;27.17;57.34;101179.41;5050910;28;19979;-44
2021/09/10 11:35:18;;;;;;;;;;;;;;;27.16;56.91;101178.59;5049180;28;19925;-48
2021/09/10 11:37:52;;;;;;;;;;;;;;;26.86;57.77;101174.50;5049427;28;19925;-47
2021/09/10 11:40:29;;;;;;;;;;;;;;;27.08;57.67;101170.66;5049331;28;19975;-44
2021/09/10 11:43:04;;;;;;;;;;;;;;;26.98;58.29;101168.34;5047669;28;19932;-43
2021/09/10 11:45:34;;;;;;;;;;;;;;;27.23;57.90;101169.66;5049333;28;19928;-48
2021/09/10 11:48:05;;;;;;;;;;;;;;;27.00;58.91;101162.75;5048753;28;19978;-46
2021/09/10 11:50:43;;;;;;;;;;;;;;;26.74;59.36;101158.06;5051415;28;19929;-46
2021/09/10 11:53:14;;;;;;;;;;;;;;;26.49;59.92;101166.59;5049685;28;20368;-46
2021/09/10 11:56:12;;;;;;;;;;;;;;;26.25;60.78;101159.81;5069585;28;19925;-47
2021/09/10 11:58:38;;;;;;;;;;;;;;;26.07;60.98;101152.19;5054538;28;19927;-45
2021/09/10 12:01:12;;;;;;;;;;;;;;;25.73;62.44;101149.19;5053481;28;19987;-49
2021/09/10 12:03:46;;;;;;;;;;;;;;;26.02;61.97;101154.63;5054974;28;19924;-44
2021/09/10 12:06:20;;;;;;;;;;;;;;;25.94;61.67;101152.91;5055861;28;20027;-46
2021/09/10 12:09:06;;;;;;;;;;;;;;;25.68;63.47;101148.94;5054585;28;20620;-48
2021/09/10 12:11:33;;;;;;;;;;;;;;;25.72;63.64;101147.53;5055105;28;19994;-47
2021/09/10 12:14:00;;;;;;;;;;;;;;;25.71;65.40;101156.63;5071083;28;19955;-47
2021/09/10 12:16:27;;;;;;;;;;;;;;;25.71;66.86;101170.09;5071020;28;19982;-48
2021/09/10 12:19:01;;;;;;;;;;;;;;;25.38;68.78;101177.84;5070955;28;19939;-42
2021/09/10 12:21:31;;;;;;;;;;;;;;;25.31;71.64;101183.94;5071095;28;19924;-44
2021/09/10 12:24:08;;;;;;;;;;;;;;;25.24;71.94;101192.97;5054654;28;19925;-46
2021/09/10 12:26:50;;;;;;;;;;;;;;;25.09;73.97;101196.50;5052493;28;19947;-45
2021/09/10 12:29:25;;;;;;;;;;;;;;;24.88;71.39;101201.81;5054352;28;19952;-44
2021/09/10 12:31:52;;;;;;;;;;;;;;;24.45;71.83;101195.16;5054715;28;19931;-45
2021/09/10 12:34:18;;;;;;;;;;;;;;;24.28;72.53;101201.72;5051367;28;19979;-48
2021/09/10 12:36:46;;;;;;;;;;;;;;;23.84;76.21;101213.13;5052579;28;19995;-44
2021/09/10 12:39:16;;;;;;;;;;;;;;;23.71;77.36;101211.00;5052491;28;19955;-44
2021/09/10 12:41:43;;;;;;;;;;;;;;;23.34;79.38;101213.44;5053623;28;19978;-43